Time;durP1;ratioP1;P1;durP2;ratioP2;P2;SDS_P1;SDS_P2;PMS_P1;PMS_P2;Temp;Humidity;BMP_temperature;BMP_pressure;BME280_temperature;BME280_humidity;BME280_pressure;Samples;Min_cycle;Max_cycle;Signal;HPM_P1;HPM_P2
2021/05/26 00:00:17;;;;;;;2.53;1.02;;;;;;;;;;1492852;39;20027;-63
2021/05/26 00:01:18;;;;;;;1.58;0.90;;;;;;;;;;1492847;39;20027;-63
2021/05/26 00:02:20;;;;;;;2.60;0.90;;;;;;;;;;1492999;39;20085;-63
2021/05/26 00:03:21;;;;;;;3.08;1.02;;;;;;;;;;1492976;39;20360;-63
2021/05/26 00:04:22;;;;;;;2.45;0.90;;;;;;;;;;1492996;39;20024;-62
2021/05/26 00:05:23;;;;;;;2.67;0.90;;;;;;;;;;1493142;39;20036;-63
2021/05/26 00:06:26;;;;;;;3.25;0.95;;;;;;;;;;1492975;39;20128;-63
2021/05/26 00:07:26;;;;;;;2.83;0.90;;;;;;;;;;1493107;39;20108;-64
2021/05/26 00:08:29;;;;;;;1.85;0.88;;;;;;;;;;1493229;39;20452;-62
2021/05/26 00:09:30;;;;;;;3.05;1.10;;;;;;;;;;1493106;39;20067;-62
2021/05/26 00:10:31;;;;;;;2.25;1.20;;;;;;;;;;1493093;39;20296;-62
2021/05/26 00:11:32;;;;;;;1.83;1.00;;;;;;;;;;1492786;39;20031;-62
2021/05/26 00:12:34;;;;;;;2.63;0.80;;;;;;;;;;1492914;39;20032;-62
2021/05/26 00:13:35;;;;;;;2.22;0.90;;;;;;;;;;1492950;39;20024;-62
2021/05/26 00:14:36;;;;;;;1.73;0.90;;;;;;;;;;1493004;39;20046;-62
2021/05/26 00:15:37;;;;;;;2.15;0.80;;;;;;;;;;1492841;39;20092;-63
2021/05/26 00:16:38;;;;;;;2.88;0.80;;;;;;;;;;1493084;39;20031;-62
2021/05/26 00:17:39;;;;;;;2.40;0.93;;;;;;;;;;1493190;39;20035;-62
2021/05/26 00:18:41;;;;;;;2.35;0.90;;;;;;;;;;1492970;39;20276;-62
2021/05/26 00:19:43;;;;;;;2.97;1.15;;;;;;;;;;1493128;39;20020;-62
2021/05/26 00:20:47;;;;;;;3.72;1.10;;;;;;;;;;1492637;39;20036;-63
2021/05/26 00:21:49;;;;;;;1.80;0.90;;;;;;;;;;1492712;39;20415;-63
2021/05/26 00:22:50;;;;;;;2.45;0.90;;;;;;;;;;1492805;39;20039;-62
2021/05/26 00:23:51;;;;;;;2.28;0.90;;;;;;;;;;1493054;39;20040;-62
2021/05/26 00:24:53;;;;;;;2.03;0.85;;;;;;;;;;1492794;39;20112;-62
2021/05/26 00:25:54;;;;;;;2.58;0.90;;;;;;;;;;1492325;39;20028;-62
2021/05/26 00:26:55;;;;;;;2.08;0.98;;;;;;;;;;1492570;39;20032;-63
2021/05/26 00:27:58;;;;;;;35.80;11.18;;;;;;;;;;1492999;39;20032;-62
2021/05/26 00:29:00;;;;;;;1.70;0.90;;;;;;;;;;1493152;39;20036;-63
2021/05/26 00:30:01;;;;;;;2.38;0.80;;;;;;;;;;1492802;39;20032;-62
2021/05/26 00:31:05;;;;;;;3.40;1.10;;;;;;;;;;1492885;39;20394;-62
2021/05/26 00:32:07;;;;;;;3.40;1.08;;;;;;;;;;1492955;39;20043;-62
2021/05/26 00:33:07;;;;;;;1.90;0.90;;;;;;;;;;1492769;39;20028;-64
2021/05/26 00:34:09;;;;;;;2.75;0.82;;;;;;;;;;1492988;39;20113;-62
2021/05/26 00:35:10;;;;;;;3.60;0.90;;;;;;;;;;1492822;39;20027;-62
2021/05/26 00:36:11;;;;;;;1.92;0.90;;;;;;;;;;1492992;39;20035;-62
2021/05/26 00:37:13;;;;;;;2.85;0.90;;;;;;;;;;1492249;39;20032;-63
2021/05/26 00:38:15;;;;;;;2.40;0.70;;;;;;;;;;1492345;39;20116;-62
2021/05/26 00:39:17;;;;;;;3.25;0.80;;;;;;;;;;1493058;39;20032;-62
2021/05/26 00:40:19;;;;;;;2.83;0.90;;;;;;;;;;1492975;39;20303;-62
2021/05/26 00:41:19;;;;;;;2.08;1.00;;;;;;;;;;1492767;39;20116;-62
2021/05/26 00:42:22;;;;;;;2.58;0.93;;;;;;;;;;1492745;39;20387;-62
2021/05/26 00:43:23;;;;;;;2.40;0.90;;;;;;;;;;1492803;39;20034;-62
2021/05/26 00:44:24;;;;;;;3.08;0.98;;;;;;;;;;1492801;39;20031;-62
2021/05/26 00:45:25;;;;;;;2.65;1.20;;;;;;;;;;1492802;39;20148;-62
2021/05/26 00:46:26;;;;;;;2.83;0.88;;;;;;;;;;1492784;39;20148;-62
2021/05/26 00:47:42;;;;;;;1.70;0.80;;;;;;;;;;1492856;39;20023;-62
2021/05/26 00:48:43;;;;;;;2.33;0.80;;;;;;;;;;1492780;39;20034;-62
2021/05/26 00:49:44;;;;;;;2.53;0.90;;;;;;;;;;1492963;39;20109;-62
2021/05/26 00:50:45;;;;;;;1.77;0.80;;;;;;;;;;1492788;39;20392;-62
2021/05/26 00:51:46;;;;;;;1.73;0.80;;;;;;;;;;1492943;39;20030;-62
2021/05/26 00:52:48;;;;;;;1.95;0.70;;;;;;;;;;1492795;39;20410;-62
2021/05/26 00:53:49;;;;;;;1.95;0.90;;;;;;;;;;1492902;39;20032;-62
2021/05/26 00:54:50;;;;;;;1.95;0.85;;;;;;;;;;1492821;39;20027;-62
2021/05/26 00:55:51;;;;;;;2.50;0.90;;;;;;;;;;1492728;39;20038;-62
2021/05/26 00:56:53;;;;;;;1.50;0.77;;;;;;;;;;1492706;39;20034;-61
2021/05/26 00:57:54;;;;;;;4.00;1.17;;;;;;;;;;1492721;39;20036;-62
2021/05/26 00:58:55;;;;;;;2.78;0.98;;;;;;;;;;1492921;39;20028;-62
2021/05/26 00:59:56;;;;;;;2.33;1.05;;;;;;;;;;1492825;39;20039;-62
2021/05/26 01:00:57;;;;;;;4.32;1.15;;;;;;;;;;1492862;39;20295;-62
2021/05/26 01:01:58;;;;;;;2.38;1.10;;;;;;;;;;1492624;39;20039;-62
2021/05/26 01:03:00;;;;;;;2.35;1.00;;;;;;;;;;1492718;39;20028;-62
2021/05/26 01:04:01;;;;;;;1.50;0.80;;;;;;;;;;1492872;39;20024;-62
2021/05/26 01:05:04;;;;;;;2.05;0.90;;;;;;;;;;1492842;39;20124;-62
2021/05/26 01:06:06;;;;;;;3.20;1.00;;;;;;;;;;1492906;39;20113;-61
2021/05/26 01:07:09;;;;;;;3.22;0.80;;;;;;;;;;1492729;39;20036;-62
2021/05/26 01:08:12;;;;;;;3.22;1.25;;;;;;;;;;1492725;39;20030;-62
2021/05/26 01:09:12;;;;;;;3.60;0.95;;;;;;;;;;1492674;39;20380;-62
2021/05/26 01:10:17;;;;;;;1.98;0.95;;;;;;;;;;1492656;39;20121;-62
2021/05/26 01:11:18;;;;;;;2.15;1.00;;;;;;;;;;1492129;39;20024;-62
2021/05/26 01:12:19;;;;;;;1.85;0.90;;;;;;;;;;1492223;39;20105;-62
2021/05/26 01:13:24;;;;;;;3.15;1.08;;;;;;;;;;1492851;39;20031;-62
2021/05/26 01:14:25;;;;;;;4.93;1.15;;;;;;;;;;1492825;39;20039;-62
2021/05/26 01:15:26;;;;;;;2.83;1.05;;;;;;;;;;1492628;39;20051;-62
2021/05/26 01:16:27;;;;;;;1.98;0.90;;;;;;;;;;1492704;39;20028;-62
2021/05/26 01:17:28;;;;;;;1.85;0.90;;;;;;;;;;1492679;39;20035;-62
2021/05/26 01:18:30;;;;;;;1.85;0.75;;;;;;;;;;1492718;39;20028;-62
2021/05/26 01:19:32;;;;;;;2.13;0.77;;;;;;;;;;1492688;39;20031;-62
2021/05/26 01:20:33;;;;;;;2.53;0.98;;;;;;;;;;1492878;39;20040;-61
2021/05/26 01:21:34;;;;;;;2.10;0.90;;;;;;;;;;1492750;39;20032;-62
2021/05/26 01:22:36;;;;;;;2.70;1.00;;;;;;;;;;1492605;39;20024;-62
2021/05/26 01:23:38;;;;;;;2.78;1.20;;;;;;;;;;1492659;39;20288;-62
2021/05/26 01:24:39;;;;;;;1.30;0.70;;;;;;;;;;1492856;39;20089;-62
2021/05/26 01:25:40;;;;;;;1.55;0.77;;;;;;;;;;1492851;39;20105;-62
2021/05/26 01:26:41;;;;;;;3.20;0.90;;;;;;;;;;1492630;39;20028;-62
2021/05/26 01:27:42;;;;;;;3.35;1.20;;;;;;;;;;1492658;39;20405;-62
2021/05/26 01:28:48;;;;;;;3.47;1.05;;;;;;;;;;1492677;39;20032;-62
2021/05/26 01:29:55;;;;;;;1.85;1.00;;;;;;;;;;1492827;39;20034;-62
2021/05/26 01:30:57;;;;;;;1.13;0.70;;;;;;;;;;1492701;39;20303;-62
2021/05/26 01:31:59;;;;;;;2.45;1.40;;;;;;;;;;1492622;39;20043;-61
2021/05/26 01:33:01;;;;;;;2.20;0.85;;;;;;;;;;1493478;39;20024;-62
2021/05/26 01:34:07;;;;;;;1.80;0.90;;;;;;;;;;1493448;39;20028;-62
2021/05/26 01:35:16;;;;;;;1.52;0.70;;;;;;;;;;1493290;39;20024;-62
2021/05/26 01:36:17;;;;;;;2.22;1.08;;;;;;;;;;1493464;39;20028;-62
2021/05/26 01:37:19;;;;;;;31.88;4.60;;;;;;;;;;1493214;39;20031;-62
2021/05/26 01:38:22;;;;;;;3.13;1.05;;;;;;;;;;1493535;39;20023;-62
2021/05/26 01:39:24;;;;;;;6.05;1.40;;;;;;;;;;1493280;39;20376;-61
2021/05/26 01:40:25;;;;;;;2.45;0.82;;;;;;;;;;1493482;39;20040;-62
2021/05/26 01:41:31;;;;;;;2.60;1.00;;;;;;;;;;1493500;39;20024;-62
2021/05/26 01:42:32;;;;;;;3.03;1.17;;;;;;;;;;1493283;39;20055;-62
2021/05/26 01:43:34;;;;;;;2.33;1.00;;;;;;;;;;1493230;39;20303;-62
2021/05/26 01:44:37;;;;;;;2.50;0.95;;;;;;;;;;1493302;39;20302;-62
2021/05/26 01:45:39;;;;;;;7.47;1.20;;;;;;;;;;1493448;39;20035;-62
2021/05/26 01:46:40;;;;;;;3.17;1.02;;;;;;;;;;1493229;39;20387;-62
2021/05/26 01:47:44;;;;;;;1.95;1.00;;;;;;;;;;1493472;39;20035;-62
2021/05/26 01:48:46;;;;;;;1.70;0.82;;;;;;;;;;1493453;39;20112;-62
2021/05/26 01:49:47;;;;;;;2.05;0.80;;;;;;;;;;1493418;39;20031;-62
2021/05/26 01:50:49;;;;;;;1.70;0.90;;;;;;;;;;1493274;39;20165;-62
2021/05/26 01:51:50;;;;;;;2.40;0.98;;;;;;;;;;1493185;39;20043;-62
2021/05/26 01:52:53;;;;;;;4.85;1.15;;;;;;;;;;1493221;39;20040;-62
2021/05/26 01:53:55;;;;;;;3.22;0.98;;;;;;;;;;1493265;39;20040;-62
2021/05/26 01:54:56;;;;;;;2.97;1.02;;;;;;;;;;1493241;39;20072;-62
2021/05/26 01:55:57;;;;;;;1.63;0.90;;;;;;;;;;1493441;39;20032;-62
2021/05/26 01:56:58;;;;;;;2.50;1.00;;;;;;;;;;1493231;39;20307;-62
2021/05/26 01:58:00;;;;;;;2.33;0.90;;;;;;;;;;1493452;39;20044;-62
2021/05/26 01:59:01;;;;;;;4.38;1.15;;;;;;;;;;1493484;39;20027;-62
2021/05/26 02:00:03;;;;;;;2.13;1.00;;;;;;;;;;1493257;39;20024;-62
2021/05/26 02:01:04;;;;;;;1.80;1.00;;;;;;;;;;1493358;39;20036;-62
2021/05/26 02:02:05;;;;;;;2.05;1.20;;;;;;;;;;1493302;39;20034;-62
2021/05/26 02:03:06;;;;;;;2.65;1.00;;;;;;;;;;1493242;39;20299;-62
2021/05/26 02:04:07;;;;;;;2.33;1.17;;;;;;;;;;1493398;39;20031;-62
2021/05/26 02:05:10;;;;;;;3.90;0.98;;;;;;;;;;1493328;39;20032;-62
2021/05/26 02:06:12;;;;;;;3.28;1.17;;;;;;;;;;1493393;39;20028;-62
2021/05/26 02:07:13;;;;;;;2.38;0.88;;;;;;;;;;1493240;39;20059;-62
2021/05/26 02:08:14;;;;;;;2.10;0.80;;;;;;;;;;1493196;39;20038;-62
2021/05/26 02:09:16;;;;;;;2.90;1.00;;;;;;;;;;1493387;39;20035;-62
2021/05/26 02:10:18;;;;;;;3.95;1.20;;;;;;;;;;1493287;39;20034;-62
2021/05/26 02:12:39;;;;;;;2.40;0.95;;;;;;;;;;1493201;39;20395;-62
2021/05/26 02:13:41;;;;;;;2.00;1.02;;;;;;;;;;1493099;39;20387;-62
2021/05/26 02:14:41;;;;;;;4.22;1.00;;;;;;;;;;1493150;39;20024;-62
2021/05/26 02:15:43;;;;;;;1.88;0.95;;;;;;;;;;1493330;39;20105;-62
2021/05/26 02:16:44;;;;;;;2.25;1.25;;;;;;;;;;1493366;39;20034;-62
2021/05/26 02:17:45;;;;;;;2.30;0.90;;;;;;;;;;1493414;39;20039;-62
2021/05/26 02:18:46;;;;;;;2.22;1.00;;;;;;;;;;1493348;39;20105;-62
2021/05/26 02:19:48;;;;;;;2.90;1.23;;;;;;;;;;1493406;39;20117;-62
2021/05/26 02:20:49;;;;;;;1.60;0.90;;;;;;;;;;1493400;39;20034;-62
2021/05/26 02:21:50;;;;;;;2.28;0.95;;;;;;;;;;1493175;39;20387;-62
2021/05/26 02:22:51;;;;;;;3.50;1.00;;;;;;;;;;1493316;39;20028;-62
2021/05/26 02:23:52;;;;;;;3.25;1.05;;;;;;;;;;1493318;39;20028;-61
2021/05/26 02:24:55;;;;;;;1.92;0.90;;;;;;;;;;1493145;39;20117;-62
2021/05/26 02:25:55;;;;;;;2.42;1.10;;;;;;;;;;1493132;39;20040;-62
2021/05/26 02:26:57;;;;;;;4.43;1.30;;;;;;;;;;1493296;39;20052;-62
2021/05/26 02:27:57;;;;;;;3.55;1.30;;;;;;;;;;1493205;39;20024;-62
2021/05/26 02:28:59;;;;;;;2.22;1.10;;;;;;;;;;1493130;39;20024;-62
2021/05/26 02:29:59;;;;;;;3.67;1.00;;;;;;;;;;1493298;39;20024;-62
2021/05/26 02:31:01;;;;;;;3.35;1.23;;;;;;;;;;1493311;39;20036;-62
2021/05/26 02:32:02;;;;;;;3.72;1.10;;;;;;;;;;1493239;39;20031;-62
2021/05/26 02:33:04;;;;;;;2.03;1.10;;;;;;;;;;1493124;39;20036;-62
2021/05/26 02:34:04;;;;;;;3.63;1.08;;;;;;;;;;1493145;39;20027;-62
2021/05/26 02:35:07;;;;;;;2.15;1.08;;;;;;;;;;1493100;39;20480;-62
2021/05/26 02:36:08;;;;;;;3.40;1.00;;;;;;;;;;1493260;39;20039;-62
2021/05/26 02:37:09;;;;;;;3.10;1.48;;;;;;;;;;1493083;39;20028;-63
2021/05/26 02:38:10;;;;;;;2.20;1.20;;;;;;;;;;1493310;39;20024;-62
2021/05/26 02:39:12;;;;;;;1.45;0.95;;;;;;;;;;1493277;39;20028;-62
2021/05/26 02:40:14;;;;;;;4.00;1.25;;;;;;;;;;1493254;39;20039;-62
2021/05/26 02:41:18;;;;;;;2.40;1.00;;;;;;;;;;1493100;39;20032;-62
2021/05/26 02:42:19;;;;;;;3.25;1.30;;;;;;;;;;1493205;39;20040;-62
2021/05/26 02:43:21;;;;;;;2.72;1.20;;;;;;;;;;1493317;39;20072;-62
2021/05/26 02:44:22;;;;;;;2.97;1.20;;;;;;;;;;1492764;39;20303;-62
2021/05/26 02:45:23;;;;;;;3.80;1.10;;;;;;;;;;1493031;39;20434;-62
2021/05/26 02:46:24;;;;;;;3.30;1.17;;;;;;;;;;1492657;39;20032;-61
2021/05/26 02:47:25;;;;;;;1.75;1.00;;;;;;;;;;1492604;39;20035;-62
2021/05/26 02:48:26;;;;;;;3.35;1.17;;;;;;;;;;1493302;39;20109;-61
2021/05/26 02:49:28;;;;;;;1.83;0.98;;;;;;;;;;1493264;39;20028;-62
2021/05/26 02:50:29;;;;;;;3.72;1.33;;;;;;;;;;1493109;39;20024;-63
2021/05/26 02:51:30;;;;;;;2.78;1.15;;;;;;;;;;1493019;39;20034;-62
2021/05/26 02:52:31;;;;;;;2.17;1.00;;;;;;;;;;1493209;39;20024;-62
2021/05/26 02:53:33;;;;;;;2.00;1.00;;;;;;;;;;1493314;39;20028;-62
2021/05/26 02:54:33;;;;;;;3.13;1.00;;;;;;;;;;1493266;39;20032;-62
2021/05/26 02:55:36;;;;;;;2.85;0.90;;;;;;;;;;1493306;39;20291;-62
2021/05/26 02:56:37;;;;;;;1.38;0.80;;;;;;;;;;1493097;39;20024;-61
2021/05/26 02:57:38;;;;;;;2.13;0.90;;;;;;;;;;1493270;39;20043;-62
2021/05/26 02:58:40;;;;;;;2.13;0.95;;;;;;;;;;1492678;39;20020;-62
2021/05/26 02:59:41;;;;;;;1.95;0.95;;;;;;;;;;1492553;39;20028;-62
2021/05/26 03:00:43;;;;;;;2.40;1.15;;;;;;;;;;1493273;39;20042;-62
2021/05/26 03:01:44;;;;;;;2.30;0.95;;;;;;;;;;1492994;39;20315;-62
2021/05/26 03:02:45;;;;;;;2.47;1.17;;;;;;;;;;1493223;39;20027;-62
2021/05/26 03:03:47;;;;;;;3.17;0.90;;;;;;;;;;1493226;39;20032;-61
2021/05/26 03:04:48;;;;;;;1.80;1.08;;;;;;;;;;1493273;39;20145;-61
2021/05/26 03:05:49;;;;;;;2.70;1.02;;;;;;;;;;1493097;39;20028;-62
2021/05/26 03:06:50;;;;;;;2.47;0.90;;;;;;;;;;1493049;39;20028;-62
2021/05/26 03:07:51;;;;;;;2.40;0.90;;;;;;;;;;1493046;39;20024;-62
2021/05/26 03:08:52;;;;;;;1.35;0.80;;;;;;;;;;1493071;39;20023;-61
2021/05/26 03:09:53;;;;;;;2.50;0.95;;;;;;;;;;1493071;39;20027;-61
2021/05/26 03:10:57;;;;;;;2.63;1.10;;;;;;;;;;1493111;39;20406;-62
2021/05/26 03:11:58;;;;;;;1.80;0.90;;;;;;;;;;1493009;39;20116;-61
2021/05/26 03:12:59;;;;;;;2.60;0.90;;;;;;;;;;1493094;39;20032;-62
2021/05/26 03:14:00;;;;;;;2.30;1.00;;;;;;;;;;1493022;39;20479;-62
2021/05/26 03:15:02;;;;;;;2.85;1.02;;;;;;;;;;1493061;39;20105;-61
2021/05/26 03:16:07;;;;;;;1.60;1.08;;;;;;;;;;1492603;39;20038;-62
2021/05/26 03:17:09;;;;;;;2.88;1.00;;;;;;;;;;1492776;39;20028;-62
2021/05/26 03:18:10;;;;;;;1.65;0.82;;;;;;;;;;1493121;39;20260;-62
2021/05/26 03:19:11;;;;;;;2.50;0.80;;;;;;;;;;1493229;39;20064;-61
2021/05/26 03:20:15;;;;;;;2.25;1.00;;;;;;;;;;1492992;39;20108;-62
2021/05/26 03:21:16;;;;;;;3.20;0.98;;;;;;;;;;1493151;39;20039;-62
2021/05/26 03:22:17;;;;;;;3.00;1.00;;;;;;;;;;1492961;39;20287;-61
2021/05/26 03:23:20;;;;;;;2.53;0.95;;;;;;;;;;1493035;39;20042;-62
2021/05/26 03:24:21;;;;;;;1.88;0.98;;;;;;;;;;1493042;39;20104;-62
2021/05/26 03:25:23;;;;;;;2.72;1.02;;;;;;;;;;1493198;39;20105;-62
2021/05/26 03:26:25;;;;;;;1.60;1.00;;;;;;;;;;1493027;39;20054;-61
2021/05/26 03:27:33;;;;;;;4.28;1.30;;;;;;;;;;1492983;39;20391;-61
2021/05/26 03:28:35;;;;;;;2.60;1.13;;;;;;;;;;1492520;39;20047;-62
2021/05/26 03:29:36;;;;;;;3.08;1.00;;;;;;;;;;1492515;39;20028;-62
2021/05/26 03:30:37;;;;;;;2.22;1.02;;;;;;;;;;1492543;39;20330;-62
2021/05/26 03:31:38;;;;;;;2.65;0.90;;;;;;;;;;1493132;39;20028;-61
2021/05/26 03:32:41;;;;;;;2.72;0.80;;;;;;;;;;1492992;39;20038;-62
2021/05/26 03:33:42;;;;;;;2.25;0.82;;;;;;;;;;1493137;39;20031;-62
2021/05/26 03:34:44;;;;;;;151.50;26.13;;;;;;;;;;1493014;39;20035;-61
2021/05/26 03:35:45;;;;;;;2.78;0.90;;;;;;;;;;1493015;39;20055;-61
2021/05/26 03:36:46;;;;;;;25.88;2.88;;;;;;;;;;1493005;39;20038;-62
2021/05/26 03:37:48;;;;;;;1.42;0.88;;;;;;;;;;1493072;39;20060;-62
2021/05/26 03:38:49;;;;;;;2.90;1.20;;;;;;;;;;1492991;39;20032;-62
2021/05/26 03:39:50;;;;;;;2.30;0.80;;;;;;;;;;1493138;39;20032;-64
2021/05/26 03:40:51;;;;;;;2.85;1.02;;;;;;;;;;1492983;39;20292;-62
2021/05/26 03:41:53;;;;;;;1.60;0.88;;;;;;;;;;1493057;39;20040;-62
2021/05/26 03:42:55;;;;;;;43.60;6.57;;;;;;;;;;1493005;39;20051;-62
2021/05/26 03:43:55;;;;;;;2.22;1.08;;;;;;;;;;1493097;39;20031;-62
2021/05/26 03:44:57;;;;;;;2.38;0.85;;;;;;;;;;1493173;39;20028;-61
2021/05/26 03:45:58;;;;;;;3.03;1.00;;;;;;;;;;1493131;39;20031;-62
2021/05/26 03:47:00;;;;;;;4.47;1.10;;;;;;;;;;1493091;39;20024;-62
2021/05/26 03:48:01;;;;;;;1.60;0.90;;;;;;;;;;1493027;39;20089;-62
2021/05/26 03:49:02;;;;;;;1.98;0.85;;;;;;;;;;1492969;39;20388;-61
2021/05/26 03:50:05;;;;;;;2.33;1.00;;;;;;;;;;1493104;39;20371;-62
2021/05/26 03:51:06;;;;;;;1.60;0.90;;;;;;;;;;1493026;39;20383;-61
2021/05/26 03:52:07;;;;;;;2.13;0.93;;;;;;;;;;1492869;39;20399;-61
2021/05/26 03:53:08;;;;;;;3.00;1.05;;;;;;;;;;1493223;39;20067;-62
2021/05/26 03:54:09;;;;;;;3.08;1.10;;;;;;;;;;1493266;39;20044;-62
2021/05/26 03:55:13;;;;;;;2.17;0.93;;;;;;;;;;1493344;39;20039;-60
2021/05/26 03:56:14;;;;;;;1.27;0.80;;;;;;;;;;1492492;39;20403;-59
2021/05/26 03:57:16;;;;;;;2.15;1.00;;;;;;;;;;1493188;39;20034;-58
2021/05/26 03:58:17;;;;;;;2.30;0.90;;;;;;;;;;1493227;39;20070;-59
2021/05/26 03:59:18;;;;;;;2.58;0.98;;;;;;;;;;1493084;39;20028;-59
2021/05/26 04:00:20;;;;;;;1.60;0.80;;;;;;;;;;1493052;39;20026;-59
2021/05/26 04:01:22;;;;;;;2.55;0.90;;;;;;;;;;1493028;39;20068;-59
2021/05/26 04:02:22;;;;;;;3.45;1.00;;;;;;;;;;1493063;39;20039;-59
2021/05/26 04:03:24;;;;;;;2.00;0.80;;;;;;;;;;1493071;39;20067;-60
2021/05/26 04:04:25;;;;;;;2.13;0.98;;;;;;;;;;1493051;39;20032;-59
2021/05/26 04:05:27;;;;;;;2.13;1.10;;;;;;;;;;1493085;39;20027;-59
2021/05/26 04:06:28;;;;;;;2.92;0.90;;;;;;;;;;1493140;39;20029;-59
2021/05/26 04:07:29;;;;;;;3.40;0.88;;;;;;;;;;1492917;39;20318;-58
2021/05/26 04:08:30;;;;;;;2.45;1.00;;;;;;;;;;1493176;39;20036;-59
2021/05/26 04:09:32;;;;;;;2.50;0.90;;;;;;;;;;1492899;39;20365;-59
2021/05/26 04:10:32;;;;;;;3.30;0.90;;;;;;;;;;1492986;39;20390;-59
2021/05/26 04:11:34;;;;;;;3.53;0.85;;;;;;;;;;1492800;39;20031;-58
2021/05/26 04:12:36;;;;;;;3.08;0.98;;;;;;;;;;1493134;39;20023;-59
2021/05/26 04:13:38;;;;;;;3.33;1.20;;;;;;;;;;1492877;39;20028;-59
2021/05/26 04:14:38;;;;;;;1.50;0.93;;;;;;;;;;1492865;39;20104;-61
2021/05/26 04:15:40;;;;;;;3.13;1.00;;;;;;;;;;1492853;39;20120;-59
2021/05/26 04:16:41;;;;;;;2.20;0.90;;;;;;;;;;1493037;39;20105;-58
2021/05/26 04:17:42;;;;;;;2.92;1.00;;;;;;;;;;1493028;39;20136;-59
2021/05/26 04:18:43;;;;;;;2.92;1.02;;;;;;;;;;1492944;39;20394;-59
2021/05/26 04:19:44;;;;;;;1.83;1.10;;;;;;;;;;1492828;39;20031;-59
2021/05/26 04:20:45;;;;;;;1.88;0.95;;;;;;;;;;1492845;39;20039;-59
2021/05/26 04:21:46;;;;;;;2.50;1.00;;;;;;;;;;1492847;39;20087;-59
2021/05/26 04:22:47;;;;;;;1.92;1.08;;;;;;;;;;1492829;39;20035;-59
2021/05/26 04:23:48;;;;;;;1.83;0.85;;;;;;;;;;1492926;39;20295;-59
2021/05/26 04:24:49;;;;;;;1.38;1.10;;;;;;;;;;1493017;39;20032;-59
2021/05/26 04:25:51;;;;;;;2.10;1.02;;;;;;;;;;1493017;39;20027;-59
2021/05/26 04:26:52;;;;;;;2.70;0.90;;;;;;;;;;1492819;39;20028;-59
2021/05/26 04:27:54;;;;;;;1.40;0.88;;;;;;;;;;1492852;39;20085;-59
2021/05/26 04:28:55;;;;;;;3.45;1.00;;;;;;;;;;1492421;39;20031;-59
2021/05/26 04:29:58;;;;;;;3.60;1.35;;;;;;;;;;1492343;39;20391;-59
2021/05/26 04:30:59;;;;;;;3.25;1.10;;;;;;;;;;1493041;39;20032;-59
2021/05/26 04:32:00;;;;;;;3.65;1.20;;;;;;;;;;1493022;39;20040;-59
2021/05/26 04:33:01;;;;;;;1.77;0.90;;;;;;;;;;1493166;39;20032;-59
2021/05/26 04:34:03;;;;;;;1.98;0.98;;;;;;;;;;1492778;39;20384;-59
2021/05/26 04:35:05;;;;;;;4.40;0.93;;;;;;;;;;1492842;39;20112;-59
2021/05/26 04:36:07;;;;;;;2.05;0.90;;;;;;;;;;1492966;39;20035;-59
2021/05/26 04:37:08;;;;;;;3.10;1.17;;;;;;;;;;1492719;39;20063;-61
2021/05/26 04:38:09;;;;;;;3.00;1.00;;;;;;;;;;1493013;39;20035;-59
2021/05/26 04:39:11;;;;;;;2.63;0.98;;;;;;;;;;1492387;39;20035;-59
2021/05/26 04:40:13;;;;;;;1.77;0.95;;;;;;;;;;1492324;39;20060;-60
2021/05/26 04:41:14;;;;;;;2.20;0.95;;;;;;;;;;1492866;39;20047;-58
2021/05/26 04:42:15;;;;;;;2.00;0.88;;;;;;;;;;1492685;39;20034;-59
2021/05/26 04:43:19;;;;;;;3.50;1.30;;;;;;;;;;1492789;39;20027;-59
2021/05/26 04:44:20;;;;;;;2.38;1.00;;;;;;;;;;1492775;39;20024;-59
2021/05/26 04:45:21;;;;;;;5.15;1.00;;;;;;;;;;1492987;39;20394;-59
2021/05/26 04:46:22;;;;;;;2.42;0.82;;;;;;;;;;1492791;39;20387;-59
2021/05/26 04:47:23;;;;;;;4.70;1.10;;;;;;;;;;1492850;39;20138;-59
2021/05/26 04:48:24;;;;;;;2.00;0.93;;;;;;;;;;1492951;39;20082;-60
2021/05/26 04:49:25;;;;;;;1.67;0.90;;;;;;;;;;1492749;39;20031;-59
2021/05/26 04:50:26;;;;;;;2.75;0.98;;;;;;;;;;1492782;39;20391;-59
2021/05/26 04:51:27;;;;;;;2.47;0.90;;;;;;;;;;1492903;39;20028;-59
2021/05/26 04:52:28;;;;;;;3.35;1.00;;;;;;;;;;1492755;39;20031;-60
2021/05/26 04:53:29;;;;;;;2.15;0.90;;;;;;;;;;1492940;39;20024;-60
2021/05/26 04:54:31;;;;;;;2.33;1.00;;;;;;;;;;1492922;39;20112;-59
2021/05/26 04:55:32;;;;;;;2.67;1.10;;;;;;;;;;1492914;39;20055;-59
2021/05/26 04:56:33;;;;;;;2.65;0.98;;;;;;;;;;1492758;39;20023;-60
2021/05/26 04:57:34;;;;;;;1.70;0.80;;;;;;;;;;1492914;39;20035;-60
2021/05/26 04:58:36;;;;;;;2.15;0.85;;;;;;;;;;1492745;39;20024;-60
2021/05/26 04:59:37;;;;;;;2.38;1.00;;;;;;;;;;1492964;39;20035;-59
2021/05/26 05:00:38;;;;;;;2.70;1.00;;;;;;;;;;1492791;39;20024;-60
2021/05/26 05:01:40;;;;;;;3.47;1.10;;;;;;;;;;1492702;39;20097;-60
2021/05/26 05:02:40;;;;;;;1.85;0.90;;;;;;;;;;1492867;39;20035;-59
2021/05/26 05:03:42;;;;;;;2.40;1.08;;;;;;;;;;1492756;39;20295;-60
2021/05/26 05:04:43;;;;;;;2.15;1.10;;;;;;;;;;1492934;39;20024;-60
2021/05/26 05:05:44;;;;;;;1.92;0.90;;;;;;;;;;1492881;39;20032;-60
2021/05/26 05:06:45;;;;;;;2.65;0.90;;;;;;;;;;1492747;39;20271;-60
2021/05/26 05:07:46;;;;;;;3.35;1.13;;;;;;;;;;1493254;39;20035;-60
2021/05/26 05:08:47;;;;;;;1.63;1.00;;;;;;;;;;1493574;39;20024;-60
2021/05/26 05:09:48;;;;;;;2.80;1.00;;;;;;;;;;1493406;39;20051;-61
2021/05/26 05:10:49;;;;;;;4.65;1.10;;;;;;;;;;1493479;39;20050;-60
2021/05/26 05:11:51;;;;;;;1.83;0.98;;;;;;;;;;1493279;39;20048;-60
2021/05/26 05:12:52;;;;;;;2.35;0.90;;;;;;;;;;1493347;39;20386;-60
2021/05/26 05:13:54;;;;;;;2.60;1.00;;;;;;;;;;1493520;39;20032;-60
2021/05/26 05:14:55;;;;;;;2.60;1.10;;;;;;;;;;1493542;39;20024;-60
2021/05/26 05:15:56;;;;;;;2.45;0.90;;;;;;;;;;1493329;39;20098;-60
2021/05/26 05:16:57;;;;;;;2.72;0.88;;;;;;;;;;1493532;39;20020;-61
2021/05/26 05:17:58;;;;;;;4.60;1.27;;;;;;;;;;1492850;39;20472;-60
2021/05/26 05:18:59;;;;;;;1.65;0.82;;;;;;;;;;1492858;39;20330;-60
2021/05/26 05:20:00;;;;;;;1.35;0.75;;;;;;;;;;1493343;39;20035;-60
2021/05/26 05:21:03;;;;;;;2.20;0.90;;;;;;;;;;1493348;39;20145;-60
2021/05/26 05:22:04;;;;;;;2.67;1.00;;;;;;;;;;1493442;39;20036;-61
2021/05/26 05:23:05;;;;;;;2.20;0.88;;;;;;;;;;1493341;39;20036;-60
2021/05/26 05:24:07;;;;;;;1.98;0.90;;;;;;;;;;1493306;39;20028;-61
2021/05/26 05:25:09;;;;;;;2.00;0.90;;;;;;;;;;1493517;39;20032;-61
2021/05/26 05:26:11;;;;;;;2.28;1.00;;;;;;;;;;1493322;39;20019;-60
2021/05/26 05:27:11;;;;;;;2.35;0.90;;;;;;;;;;1493316;39;20040;-61
2021/05/26 05:28:13;;;;;;;2.00;0.95;;;;;;;;;;1493494;39;20023;-60
2021/05/26 05:29:15;;;;;;;1.85;0.95;;;;;;;;;;1493393;39;20051;-61
2021/05/26 05:30:17;;;;;;;3.78;1.00;;;;;;;;;;1493482;39;20024;-61
2021/05/26 05:31:18;;;;;;;3.00;0.90;;;;;;;;;;1493231;39;20081;-61
2021/05/26 05:32:19;;;;;;;1.95;1.10;;;;;;;;;;1493303;39;20113;-61
2021/05/26 05:33:20;;;;;;;2.42;1.05;;;;;;;;;;1493463;39;20105;-61
2021/05/26 05:34:21;;;;;;;3.20;1.17;;;;;;;;;;1493296;39;20467;-61
2021/05/26 05:35:22;;;;;;;2.50;1.02;;;;;;;;;;1493460;39;20081;-60
2021/05/26 05:36:24;;;;;;;2.00;0.85;;;;;;;;;;1493451;39;20036;-60
2021/05/26 05:37:25;;;;;;;2.13;1.17;;;;;;;;;;1493336;39;20381;-61
2021/05/26 05:38:26;;;;;;;2.67;1.00;;;;;;;;;;1493420;39;20027;-61
2021/05/26 05:39:27;;;;;;;3.17;0.98;;;;;;;;;;1493429;39;20023;-60
2021/05/26 05:40:29;;;;;;;4.78;1.20;;;;;;;;;;1493269;39;20028;-60
2021/05/26 05:41:30;;;;;;;2.38;1.00;;;;;;;;;;1493251;39;20028;-61
2021/05/26 05:42:32;;;;;;;2.72;0.93;;;;;;;;;;1493366;39;20024;-61
2021/05/26 05:43:32;;;;;;;2.67;1.10;;;;;;;;;;1493329;39;20295;-60
2021/05/26 05:44:35;;;;;;;2.78;1.00;;;;;;;;;;1493487;39;20039;-61
2021/05/26 05:45:35;;;;;;;3.03;1.00;;;;;;;;;;1493357;39;20031;-61
2021/05/26 05:46:37;;;;;;;3.58;0.85;;;;;;;;;;1493321;39;20028;-61
2021/05/26 05:47:38;;;;;;;2.58;1.25;;;;;;;;;;1493259;39;20298;-61
2021/05/26 05:48:39;;;;;;;3.47;1.08;;;;;;;;;;1493539;39;20028;-61
2021/05/26 05:49:40;;;;;;;1.80;1.17;;;;;;;;;;1493283;39;20032;-60
2021/05/26 05:50:41;;;;;;;1.70;1.10;;;;;;;;;;1493445;39;20039;-60
2021/05/26 05:51:42;;;;;;;5.43;1.10;;;;;;;;;;1493244;39;20032;-61
2021/05/26 05:52:44;;;;;;;3.08;1.25;;;;;;;;;;1493231;39;20092;-60
2021/05/26 05:53:45;;;;;;;2.83;1.10;;;;;;;;;;1493218;39;20400;-60
2021/05/26 05:54:46;;;;;;;4.00;0.98;;;;;;;;;;1493265;39;20023;-60
2021/05/26 05:55:47;;;;;;;5.22;1.08;;;;;;;;;;1493437;39;20028;-60
2021/05/26 05:56:49;;;;;;;5.47;1.25;;;;;;;;;;1493309;39;20415;-60
2021/05/26 05:57:49;;;;;;;2.15;1.05;;;;;;;;;;1493247;39;20038;-61
2021/05/26 05:58:51;;;;;;;2.10;1.00;;;;;;;;;;1493425;39;20039;-61
2021/05/26 05:59:54;;;;;;;2.13;1.20;;;;;;;;;;1493216;39;20088;-60
2021/05/26 06:00:55;;;;;;;4.63;1.42;;;;;;;;;;1492761;39;20028;-61
2021/05/26 06:01:56;;;;;;;1.50;0.90;;;;;;;;;;1492705;39;20399;-60
2021/05/26 06:02:57;;;;;;;3.40;1.25;;;;;;;;;;1493340;39;20031;-61
2021/05/26 06:03:58;;;;;;;4.05;1.00;;;;;;;;;;1493292;39;20402;-61
2021/05/26 06:04:59;;;;;;;3.05;1.17;;;;;;;;;;1493204;39;20039;-61
2021/05/26 06:06:00;;;;;;;3.20;1.10;;;;;;;;;;1493286;39;20038;-61
2021/05/26 06:07:01;;;;;;;4.35;1.00;;;;;;;;;;1493385;39;20027;-60
2021/05/26 06:08:03;;;;;;;3.40;1.08;;;;;;;;;;1493222;39;20053;-61
2021/05/26 06:09:05;;;;;;;3.13;1.00;;;;;;;;;;1493492;39;20039;-60
2021/05/26 06:10:07;;;;;;;3.60;1.10;;;;;;;;;;1493480;39;20024;-60